sensor_id;sensor_type;location;lat;lon;timestamp;temperature;humidity
9049;DHT22;4559;47.252;9.592;2022-07-23T00:00:14;24.50;92.50
9049;DHT22;4559;47.252;9.592;2022-07-23T00:02:39;24.50;94.30
9049;DHT22;4559;47.252;9.592;2022-07-23T00:05:06;24.50;96.50
9049;DHT22;4559;47.252;9.592;2022-07-23T00:07:32;24.40;97.60
9049;DHT22;4559;47.252;9.592;2022-07-23T00:09:58;24.30;98.20
9049;DHT22;4559;47.252;9.592;2022-07-23T00:12:23;24.10;98.80
9049;DHT22;4559;47.252;9.592;2022-07-23T00:14:49;23.90;99.70
9049;DHT22;4559;47.252;9.592;2022-07-23T00:17:15;23.80;99.90
9049;DHT22;4559;47.252;9.592;2022-07-23T00:19:41;23.80;99.90
9049;DHT22;4559;47.252;9.592;2022-07-23T00:22:06;23.80;99.90
9049;DHT22;4559;47.252;9.592;2022-07-23T00:24:32;23.70;99.90
9049;DHT22;4559;47.252;9.592;2022-07-23T00:26:58;23.70;99.90
9049;DHT22;4559;47.252;9.592;2022-07-23T00:29:23;23.60;99.90
9049;DHT22;4559;47.252;9.592;2022-07-23T00:31:49;23.60;99.90
9049;DHT22;4559;47.252;9.592;2022-07-23T00:34:14;23.60;99.90
9049;DHT22;4559;47.252;9.592;2022-07-23T00:36:40;23.60;99.90
9049;DHT22;4559;47.252;9.592;2022-07-23T00:39:06;23.60;99.90
9049;DHT22;4559;47.252;9.592;2022-07-23T00:41:32;23.50;99.90
9049;DHT22;4559;47.252;9.592;2022-07-23T00:44:20;23.30;99.90
9049;DHT22;4559;47.252;9.592;2022-07-23T00:46:48;23.20;99.90
9049;DHT22;4559;47.252;9.592;2022-07-23T00:49:14;23.00;99.90
9049;DHT22;4559;47.252;9.592;2022-07-23T00:51:40;22.80;99.90
9049;DHT22;4559;47.252;9.592;2022-07-23T00:54:06;22.50;99.90
9049;DHT22;4559;47.252;9.592;2022-07-23T00:56:32;22.40;99.90
9049;DHT22;4559;47.252;9.592;2022-07-23T00:59:00;22.30;99.90
9049;DHT22;4559;47.252;9.592;2022-07-23T01:01:25;22.30;99.90
9049;DHT22;4559;47.252;9.592;2022-07-23T01:03:51;22.20;99.90
9049;DHT22;4559;47.252;9.592;2022-07-23T01:06:17;22.20;99.90
9049;DHT22;4559;47.252;9.592;2022-07-23T01:08:42;22.20;99.90
9049;DHT22;4559;47.252;9.592;2022-07-23T01:11:08;22.10;99.90
9049;DHT22;4559;47.252;9.592;2022-07-23T01:13:34;22.00;99.90
9049;DHT22;4559;47.252;9.592;2022-07-23T01:16:00;21.90;99.90
9049;DHT22;4559;47.252;9.592;2022-07-23T01:18:25;21.90;99.90
9049;DHT22;4559;47.252;9.592;2022-07-23T01:20:51;21.90;99.90
9049;DHT22;4559;47.252;9.592;2022-07-23T01:23:17;21.90;99.90
9049;DHT22;4559;47.252;9.592;2022-07-23T01:26:08;21.90;99.90
9049;DHT22;4559;47.252;9.592;2022-07-23T01:28:34;21.90;99.90
9049;DHT22;4559;47.252;9.592;2022-07-23T01:31:00;21.80;99.90
9049;DHT22;4559;47.252;9.592;2022-07-23T01:33:25;21.60;99.90
9049;DHT22;4559;47.252;9.592;2022-07-23T01:35:51;21.60;99.90
9049;DHT22;4559;47.252;9.592;2022-07-23T01:38:17;21.50;99.90
9049;DHT22;4559;47.252;9.592;2022-07-23T01:40:42;21.40;99.90
9049;DHT22;4559;47.252;9.592;2022-07-23T01:43:08;21.40;99.90
9049;DHT22;4559;47.252;9.592;2022-07-23T01:45:33;21.40;99.90
9049;DHT22;4559;47.252;9.592;2022-07-23T01:47:59;21.30;99.90
9049;DHT22;4559;47.252;9.592;2022-07-23T01:50:25;21.30;99.90
9049;DHT22;4559;47.252;9.592;2022-07-23T01:52:50;21.30;99.90
9049;DHT22;4559;47.252;9.592;2022-07-23T01:55:16;21.30;99.90
9049;DHT22;4559;47.252;9.592;2022-07-23T01:57:41;21.30;99.90
9049;DHT22;4559;47.252;9.592;2022-07-23T02:00:08;21.20;99.90
9049;DHT22;4559;47.252;9.592;2022-07-23T02:02:33;21.20;99.90
9049;DHT22;4559;47.252;9.592;2022-07-23T02:04:59;21.20;99.90
9049;DHT22;4559;47.252;9.592;2022-07-23T02:07:24;21.20;99.90
9049;DHT22;4559;47.252;9.592;2022-07-23T02:09:50;21.20;99.90
9049;DHT22;4559;47.252;9.592;2022-07-23T02:12:16;21.20;99.90
9049;DHT22;4559;47.252;9.592;2022-07-23T02:14:41;21.00;99.90
9049;DHT22;4559;47.252;9.592;2022-07-23T02:17:07;21.00;99.90
9049;DHT22;4559;47.252;9.592;2022-07-23T02:19:32;21.00;99.90
9049;DHT22;4559;47.252;9.592;2022-07-23T02:21:58;20.90;99.90
9049;DHT22;4559;47.252;9.592;2022-07-23T02:24:23;20.90;99.90
9049;DHT22;4559;47.252;9.592;2022-07-23T02:26:49;20.90;99.90
9049;DHT22;4559;47.252;9.592;2022-07-23T02:29:15;20.90;99.90
9049;DHT22;4559;47.252;9.592;2022-07-23T02:31:40;21.00;99.90
9049;DHT22;4559;47.252;9.592;2022-07-23T02:34:06;21.00;99.90
9049;DHT22;4559;47.252;9.592;2022-07-23T02:36:32;21.00;99.90
9049;DHT22;4559;47.252;9.592;2022-07-23T02:38:58;21.00;99.90
9049;DHT22;4559;47.252;9.592;2022-07-23T02:41:24;21.10;99.90
9049;DHT22;4559;47.252;9.592;2022-07-23T02:43:50;21.00;99.90
9049;DHT22;4559;47.252;9.592;2022-07-23T02:46:15;21.00;99.90
9049;DHT22;4559;47.252;9.592;2022-07-23T02:48:41;21.00;99.90
9049;DHT22;4559;47.252;9.592;2022-07-23T02:51:07;21.00;99.90
9049;DHT22;4559;47.252;9.592;2022-07-23T02:53:32;21.10;99.90
9049;DHT22;4559;47.252;9.592;2022-07-23T02:55:58;21.10;99.90
9049;DHT22;4559;47.252;9.592;2022-07-23T02:58:23;21.10;99.90
9049;DHT22;4559;47.252;9.592;2022-07-23T03:00:50;21.10;99.90
9049;DHT22;4559;47.252;9.592;2022-07-23T03:03:16;21.10;99.90
9049;DHT22;4559;47.252;9.592;2022-07-23T03:05:41;21.10;99.90
9049;DHT22;4559;47.252;9.592;2022-07-23T03:08:07;21.00;99.90
9049;DHT22;4559;47.252;9.592;2022-07-23T03:10:32;21.00;99.90
9049;DHT22;4559;47.252;9.592;2022-07-23T03:12:58;21.00;99.90
9049;DHT22;4559;47.252;9.592;2022-07-23T03:15:24;21.10;99.90
9049;DHT22;4559;47.252;9.592;2022-07-23T03:17:49;21.10;99.90
9049;DHT22;4559;47.252;9.592;2022-07-23T03:20:15;21.10;99.90
9049;DHT22;4559;47.252;9.592;2022-07-23T03:22:40;21.00;99.90
9049;DHT22;4559;47.252;9.592;2022-07-23T03:25:06;21.00;99.90
9049;DHT22;4559;47.252;9.592;2022-07-23T03:27:32;21.00;99.90
9049;DHT22;4559;47.252;9.592;2022-07-23T03:29:59;21.10;99.90
9049;DHT22;4559;47.252;9.592;2022-07-23T03:32:25;21.00;99.90
9049;DHT22;4559;47.252;9.592;2022-07-23T03:34:51;21.00;99.90
9049;DHT22;4559;47.252;9.592;2022-07-23T03:37:18;21.00;99.90
9049;DHT22;4559;47.252;9.592;2022-07-23T03:39:44;21.00;99.90
9049;DHT22;4559;47.252;9.592;2022-07-23T03:42:10;21.00;99.90
9049;DHT22;4559;47.252;9.592;2022-07-23T03:44:36;21.00;99.90
9049;DHT22;4559;47.252;9.592;2022-07-23T03:47:05;20.90;99.90
9049;DHT22;4559;47.252;9.592;2022-07-23T03:49:31;20.90;99.90
9049;DHT22;4559;47.252;9.592;2022-07-23T03:51:57;20.90;99.90
9049;DHT22;4559;47.252;9.592;2022-07-23T03:54:23;20.90;99.90
9049;DHT22;4559;47.252;9.592;2022-07-23T03:56:48;20.90;99.90
9049;DHT22;4559;47.252;9.592;2022-07-23T03:59:14;20.90;99.90
9049;DHT22;4559;47.252;9.592;2022-07-23T04:01:40;20.80;99.90
9049;DHT22;4559;47.252;9.592;2022-07-23T04:04:05;20.80;99.90
9049;DHT22;4559;47.252;9.592;2022-07-23T04:06:31;20.80;99.90
9049;DHT22;4559;47.252;9.592;2022-07-23T04:08:57;20.80;99.90
9049;DHT22;4559;47.252;9.592;2022-07-23T04:11:23;20.90;99.90
9049;DHT22;4559;47.252;9.592;2022-07-23T04:13:48;20.90;99.90
9049;DHT22;4559;47.252;9.592;2022-07-23T04:16:14;20.90;99.90
9049;DHT22;4559;47.252;9.592;2022-07-23T04:18:40;20.90;99.90
9049;DHT22;4559;47.252;9.592;2022-07-23T04:21:06;20.90;99.90
9049;DHT22;4559;47.252;9.592;2022-07-23T04:23:31;20.80;99.90
9049;DHT22;4559;47.252;9.592;2022-07-23T04:25:57;20.80;99.90
9049;DHT22;4559;47.252;9.592;2022-07-23T04:28:23;20.80;99.90
9049;DHT22;4559;47.252;9.592;2022-07-23T04:30:48;20.80;99.90
9049;DHT22;4559;47.252;9.592;2022-07-23T04:33:14;20.70;99.90
9049;DHT22;4559;47.252;9.592;2022-07-23T04:35:39;20.60;99.90
9049;DHT22;4559;47.252;9.592;2022-07-23T04:38:05;20.60;99.90
9049;DHT22;4559;47.252;9.592;2022-07-23T04:40:31;20.60;99.90
9049;DHT22;4559;47.252;9.592;2022-07-23T04:42:57;20.70;99.90
9049;DHT22;4559;47.252;9.592;2022-07-23T04:45:23;20.60;99.90
9049;DHT22;4559;47.252;9.592;2022-07-23T04:47:50;20.60;99.90
9049;DHT22;4559;47.252;9.592;2022-07-23T04:50:16;20.60;99.90
9049;DHT22;4559;47.252;9.592;2022-07-23T04:52:49;20.60;99.90
9049;DHT22;4559;47.252;9.592;2022-07-23T04:55:15;20.60;99.90
9049;DHT22;4559;47.252;9.592;2022-07-23T04:57:41;20.50;99.90
9049;DHT22;4559;47.252;9.592;2022-07-23T05:00:07;20.50;99.90
9049;DHT22;4559;47.252;9.592;2022-07-23T05:02:33;20.50;99.90
9049;DHT22;4559;47.252;9.592;2022-07-23T05:04:59;20.50;99.90
9049;DHT22;4559;47.252;9.592;2022-07-23T05:07:24;20.60;99.90
9049;DHT22;4559;47.252;9.592;2022-07-23T05:09:50;20.50;99.90
9049;DHT22;4559;47.252;9.592;2022-07-23T05:12:16;20.50;99.90
9049;DHT22;4559;47.252;9.592;2022-07-23T05:14:41;20.60;99.90
9049;DHT22;4559;47.252;9.592;2022-07-23T05:17:07;20.70;99.90
9049;DHT22;4559;47.252;9.592;2022-07-23T05:19:34;20.70;99.90
9049;DHT22;4559;47.252;9.592;2022-07-23T05:21:59;20.70;99.90
9049;DHT22;4559;47.252;9.592;2022-07-23T05:24:25;20.70;99.90
9049;DHT22;4559;47.252;9.592;2022-07-23T05:26:51;20.70;99.90
9049;DHT22;4559;47.252;9.592;2022-07-23T05:29:16;20.60;99.90
9049;DHT22;4559;47.252;9.592;2022-07-23T05:31:43;20.60;99.90
9049;DHT22;4559;47.252;9.592;2022-07-23T05:34:09;20.60;99.90
9049;DHT22;4559;47.252;9.592;2022-07-23T05:36:34;20.60;99.90
9049;DHT22;4559;47.252;9.592;2022-07-23T05:39:00;20.70;99.90
9049;DHT22;4559;47.252;9.592;2022-07-23T05:41:26;20.70;99.90
9049;DHT22;4559;47.252;9.592;2022-07-23T05:43:51;20.70;99.90
9049;DHT22;4559;47.252;9.592;2022-07-23T05:46:17;20.80;99.90
9049;DHT22;4559;47.252;9.592;2022-07-23T05:48:42;20.80;99.90
9049;DHT22;4559;47.252;9.592;2022-07-23T05:51:08;20.90;99.90
9049;DHT22;4559;47.252;9.592;2022-07-23T05:53:35;20.90;99.90
9049;DHT22;4559;47.252;9.592;2022-07-23T05:56:01;20.90;99.90
9049;DHT22;4559;47.252;9.592;2022-07-23T05:58:26;21.00;99.90
9049;DHT22;4559;47.252;9.592;2022-07-23T06:00:52;21.10;99.90
9049;DHT22;4559;47.252;9.592;2022-07-23T06:03:18;21.20;99.90
9049;DHT22;4559;47.252;9.592;2022-07-23T06:05:43;21.20;99.90
9049;DHT22;4559;47.252;9.592;2022-07-23T06:08:09;21.30;99.90
9049;DHT22;4559;47.252;9.592;2022-07-23T06:10:34;21.40;99.90
9049;DHT22;4559;47.252;9.592;2022-07-23T06:13:00;21.50;99.90
9049;DHT22;4559;47.252;9.592;2022-07-23T06:15:26;21.40;99.90
9049;DHT22;4559;47.252;9.592;2022-07-23T06:17:52;21.50;99.90
9049;DHT22;4559;47.252;9.592;2022-07-23T06:20:17;21.50;99.90
9049;DHT22;4559;47.252;9.592;2022-07-23T06:22:43;21.60;99.90
9049;DHT22;4559;47.252;9.592;2022-07-23T06:25:09;21.60;99.90
9049;DHT22;4559;47.252;9.592;2022-07-23T06:27:34;21.70;99.90
9049;DHT22;4559;47.252;9.592;2022-07-23T06:30:00;21.80;99.90
9049;DHT22;4559;47.252;9.592;2022-07-23T06:32:26;21.90;99.90
9049;DHT22;4559;47.252;9.592;2022-07-23T06:34:51;22.00;99.90
9049;DHT22;4559;47.252;9.592;2022-07-23T06:37:17;22.10;99.90
9049;DHT22;4559;47.252;9.592;2022-07-23T06:39:43;22.10;99.90
9049;DHT22;4559;47.252;9.592;2022-07-23T06:42:08;22.10;99.90
9049;DHT22;4559;47.252;9.592;2022-07-23T06:44:35;22.20;99.90
9049;DHT22;4559;47.252;9.592;2022-07-23T06:47:01;22.30;99.90
9049;DHT22;4559;47.252;9.592;2022-07-23T06:49:26;22.30;99.90
9049;DHT22;4559;47.252;9.592;2022-07-23T06:51:52;22.40;99.90
9049;DHT22;4559;47.252;9.592;2022-07-23T06:54:18;22.40;99.90
9049;DHT22;4559;47.252;9.592;2022-07-23T06:56:43;22.40;99.90
9049;DHT22;4559;47.252;9.592;2022-07-23T06:59:09;22.30;99.90
9049;DHT22;4559;47.252;9.592;2022-07-23T07:01:35;22.30;99.90
9049;DHT22;4559;47.252;9.592;2022-07-23T07:04:00;22.30;99.90
9049;DHT22;4559;47.252;9.592;2022-07-23T07:06:26;22.30;99.90
9049;DHT22;4559;47.252;9.592;2022-07-23T07:08:51;22.30;99.90
9049;DHT22;4559;47.252;9.592;2022-07-23T07:11:17;22.30;99.90
9049;DHT22;4559;47.252;9.592;2022-07-23T07:13:43;22.30;99.90
9049;DHT22;4559;47.252;9.592;2022-07-23T07:16:08;22.40;99.90
9049;DHT22;4559;47.252;9.592;2022-07-23T07:18:34;22.40;99.90
9049;DHT22;4559;47.252;9.592;2022-07-23T07:21:00;22.30;99.90
9049;DHT22;4559;47.252;9.592;2022-07-23T07:23:25;22.30;99.90
9049;DHT22;4559;47.252;9.592;2022-07-23T07:25:51;22.30;99.90
9049;DHT22;4559;47.252;9.592;2022-07-23T07:28:16;22.30;99.90
9049;DHT22;4559;47.252;9.592;2022-07-23T07:30:42;22.30;99.90
9049;DHT22;4559;47.252;9.592;2022-07-23T07:33:08;22.30;99.90
9049;DHT22;4559;47.252;9.592;2022-07-23T07:35:33;22.20;99.90
9049;DHT22;4559;47.252;9.592;2022-07-23T07:37:59;22.20;99.90
9049;DHT22;4559;47.252;9.592;2022-07-23T07:40:26;22.20;99.90
9049;DHT22;4559;47.252;9.592;2022-07-23T07:42:53;22.10;99.90
9049;DHT22;4559;47.252;9.592;2022-07-23T07:45:20;22.10;99.90
9049;DHT22;4559;47.252;9.592;2022-07-23T07:47:47;22.00;99.90
9049;DHT22;4559;47.252;9.592;2022-07-23T07:50:13;21.90;99.90
9049;DHT22;4559;47.252;9.592;2022-07-23T07:52:39;21.80;99.90
9049;DHT22;4559;47.252;9.592;2022-07-23T07:55:05;21.80;99.90
9049;DHT22;4559;47.252;9.592;2022-07-23T07:57:32;21.80;99.90
9049;DHT22;4559;47.252;9.592;2022-07-23T07:59:58;21.80;99.90
9049;DHT22;4559;47.252;9.592;2022-07-23T08:02:24;21.80;99.90
9049;DHT22;4559;47.252;9.592;2022-07-23T08:04:49;21.80;99.90
9049;DHT22;4559;47.252;9.592;2022-07-23T08:07:15;21.80;99.90
9049;DHT22;4559;47.252;9.592;2022-07-23T08:09:41;21.80;99.90
9049;DHT22;4559;47.252;9.592;2022-07-23T08:12:07;21.80;99.90
9049;DHT22;4559;47.252;9.592;2022-07-23T08:14:33;21.80;99.90
9049;DHT22;4559;47.252;9.592;2022-07-23T08:16:59;21.90;99.90
9049;DHT22;4559;47.252;9.592;2022-07-23T08:19:25;21.90;99.90
9049;DHT22;4559;47.252;9.592;2022-07-23T08:21:50;22.00;99.90
9049;DHT22;4559;47.252;9.592;2022-07-23T08:24:16;22.10;99.90
9049;DHT22;4559;47.252;9.592;2022-07-23T08:26:41;22.20;99.90
9049;DHT22;4559;47.252;9.592;2022-07-23T08:29:07;22.30;99.90
9049;DHT22;4559;47.252;9.592;2022-07-23T08:31:33;22.40;99.90
9049;DHT22;4559;47.252;9.592;2022-07-23T08:33:59;22.50;99.90
9049;DHT22;4559;47.252;9.592;2022-07-23T08:36:25;22.70;99.90
9049;DHT22;4559;47.252;9.592;2022-07-23T08:38:53;22.90;99.90
9049;DHT22;4559;47.252;9.592;2022-07-23T08:41:19;23.10;99.90
9049;DHT22;4559;47.252;9.592;2022-07-23T08:43:45;23.20;99.90
9049;DHT22;4559;47.252;9.592;2022-07-23T08:46:12;23.40;99.90
9049;DHT22;4559;47.252;9.592;2022-07-23T08:48:38;23.50;99.90
9049;DHT22;4559;47.252;9.592;2022-07-23T08:51:05;23.50;99.90
9049;DHT22;4559;47.252;9.592;2022-07-23T08:53:33;23.50;99.90
9049;DHT22;4559;47.252;9.592;2022-07-23T08:56:01;23.60;99.90
9049;DHT22;4559;47.252;9.592;2022-07-23T08:58:27;23.70;99.90
9049;DHT22;4559;47.252;9.592;2022-07-23T09:00:53;23.80;99.90
9049;DHT22;4559;47.252;9.592;2022-07-23T09:03:22;23.80;99.90
9049;DHT22;4559;47.252;9.592;2022-07-23T09:05:49;23.90;99.90
9049;DHT22;4559;47.252;9.592;2022-07-23T09:08:20;23.90;99.90
9049;DHT22;4559;47.252;9.592;2022-07-23T09:11:01;23.90;99.90
9049;DHT22;4559;47.252;9.592;2022-07-23T09:15:58;23.90;99.90
9049;DHT22;4559;47.252;9.592;2022-07-23T09:21:25;23.90;99.90
9049;DHT22;4559;47.252;9.592;2022-07-23T09:28:59;24.00;99.90
9049;DHT22;4559;47.252;9.592;2022-07-23T09:31:30;24.00;99.90
9049;DHT22;4559;47.252;9.592;2022-07-23T09:34:15;24.10;99.90
9049;DHT22;4559;47.252;9.592;2022-07-23T09:36:41;24.30;99.90
9049;DHT22;4559;47.252;9.592;2022-07-23T09:39:08;24.50;99.90
9049;DHT22;4559;47.252;9.592;2022-07-23T09:41:42;24.70;99.90
9049;DHT22;4559;47.252;9.592;2022-07-23T09:44:13;25.00;99.90
9049;DHT22;4559;47.252;9.592;2022-07-23T09:46:40;25.30;99.90
9049;DHT22;4559;47.252;9.592;2022-07-23T09:49:17;25.60;99.90
9049;DHT22;4559;47.252;9.592;2022-07-23T09:51:57;25.80;99.90
9049;DHT22;4559;47.252;9.592;2022-07-23T09:57:02;26.30;99.90
9049;DHT22;4559;47.252;9.592;2022-07-23T09:59:30;26.60;99.90
9049;DHT22;4559;47.252;9.592;2022-07-23T10:01:58;26.80;99.90
9049;DHT22;4559;47.252;9.592;2022-07-23T10:04:26;26.90;99.90
9049;DHT22;4559;47.252;9.592;2022-07-23T10:06:55;27.00;99.90
9049;DHT22;4559;47.252;9.592;2022-07-23T10:09:24;27.10;99.90
9049;DHT22;4559;47.252;9.592;2022-07-23T10:11:52;27.10;99.90
9049;DHT22;4559;47.252;9.592;2022-07-23T10:14:20;27.30;99.90
9049;DHT22;4559;47.252;9.592;2022-07-23T10:16:47;27.50;99.90
9049;DHT22;4559;47.252;9.592;2022-07-23T10:19:13;27.60;99.90
9049;DHT22;4559;47.252;9.592;2022-07-23T10:22:00;27.80;99.90
9049;DHT22;4559;47.252;9.592;2022-07-23T10:24:30;28.10;99.90
9049;DHT22;4559;47.252;9.592;2022-07-23T10:30:03;28.20;99.90
9049;DHT22;4559;47.252;9.592;2022-07-23T10:32:46;28.10;99.90
9049;DHT22;4559;47.252;9.592;2022-07-23T10:37:49;28.30;99.90
9049;DHT22;4559;47.252;9.592;2022-07-23T10:40:19;28.40;99.90
9049;DHT22;4559;47.252;9.592;2022-07-23T10:42:46;28.60;99.90
9049;DHT22;4559;47.252;9.592;2022-07-23T10:45:38;28.70;99.90
9049;DHT22;4559;47.252;9.592;2022-07-23T10:48:24;28.70;99.90
9049;DHT22;4559;47.252;9.592;2022-07-23T10:51:12;28.90;99.90
9049;DHT22;4559;47.252;9.592;2022-07-23T10:53:54;29.00;98.90
9049;DHT22;4559;47.252;9.592;2022-07-23T10:59:21;29.30;99.30
9049;DHT22;4559;47.252;9.592;2022-07-23T11:01:47;29.50;97.90
9049;DHT22;4559;47.252;9.592;2022-07-23T11:04:13;29.50;96.40
9049;DHT22;4559;47.252;9.592;2022-07-23T11:15:05;29.70;98.00
9049;DHT22;4559;47.252;9.592;2022-07-23T11:17:36;29.70;98.00
9049;DHT22;4559;47.252;9.592;2022-07-23T11:25:13;29.20;98.00
9049;DHT22;4559;47.252;9.592;2022-07-23T11:27:46;29.10;98.00
9049;DHT22;4559;47.252;9.592;2022-07-23T11:35:35;28.70;97.40
9049;DHT22;4559;47.252;9.592;2022-07-23T11:38:13;28.60;97.40
9049;DHT22;4559;47.252;9.592;2022-07-23T11:40:39;28.50;98.20
9049;DHT22;4559;47.252;9.592;2022-07-23T11:43:09;28.50;98.00
9049;DHT22;4559;47.252;9.592;2022-07-23T11:45:40;28.40;98.10
9049;DHT22;4559;47.252;9.592;2022-07-23T11:48:08;28.40;98.00
9049;DHT22;4559;47.252;9.592;2022-07-23T11:50:35;28.50;98.50
9049;DHT22;4559;47.252;9.592;2022-07-23T11:53:01;28.50;98.00
9049;DHT22;4559;47.252;9.592;2022-07-23T11:55:27;28.80;97.70
9049;DHT22;4559;47.252;9.592;2022-07-23T11:57:54;28.90;97.90
9049;DHT22;4559;47.252;9.592;2022-07-23T12:00:25;29.10;97.40
9049;DHT22;4559;47.252;9.592;2022-07-23T12:02:53;29.30;97.70
9049;DHT22;4559;47.252;9.592;2022-07-23T12:05:27;29.40;97.20
9049;DHT22;4559;47.252;9.592;2022-07-23T12:07:56;29.50;97.70
9049;DHT22;4559;47.252;9.592;2022-07-23T12:10:27;29.70;97.90
9049;DHT22;4559;47.252;9.592;2022-07-23T12:15:27;29.90;96.60
9049;DHT22;4559;47.252;9.592;2022-07-23T12:17:54;29.90;95.80
9049;DHT22;4559;47.252;9.592;2022-07-23T12:20:25;29.90;95.50
9049;DHT22;4559;47.252;9.592;2022-07-23T12:22:55;29.90;95.20
9049;DHT22;4559;47.252;9.592;2022-07-23T12:25:24;29.90;96.10
9049;DHT22;4559;47.252;9.592;2022-07-23T12:30:45;29.90;96.00
9049;DHT22;4559;47.252;9.592;2022-07-23T12:33:22;29.90;95.50
9049;DHT22;4559;47.252;9.592;2022-07-23T12:35:49;29.80;96.10
9049;DHT22;4559;47.252;9.592;2022-07-23T12:38:17;29.80;96.20
9049;DHT22;4559;47.252;9.592;2022-07-23T12:43:32;29.80;95.80
9049;DHT22;4559;47.252;9.592;2022-07-23T12:46:09;29.80;95.70
9049;DHT22;4559;47.252;9.592;2022-07-23T12:48:49;29.70;95.60
9049;DHT22;4559;47.252;9.592;2022-07-23T12:51:23;29.70;96.20
9049;DHT22;4559;47.252;9.592;2022-07-23T12:53:54;29.60;95.20
9049;DHT22;4559;47.252;9.592;2022-07-23T12:56:31;29.60;95.20
9049;DHT22;4559;47.252;9.592;2022-07-23T12:58:59;29.60;95.70
9049;DHT22;4559;47.252;9.592;2022-07-23T13:01:36;29.60;95.60
9049;DHT22;4559;47.252;9.592;2022-07-23T13:04:12;29.70;95.20
9049;DHT22;4559;47.252;9.592;2022-07-23T13:06:41;29.70;95.40
9049;DHT22;4559;47.252;9.592;2022-07-23T13:09:09;29.70;95.30
9049;DHT22;4559;47.252;9.592;2022-07-23T13:11:35;29.70;95.10
9049;DHT22;4559;47.252;9.592;2022-07-23T13:14:01;29.70;95.10
9049;DHT22;4559;47.252;9.592;2022-07-23T13:16:29;29.70;95.70
9049;DHT22;4559;47.252;9.592;2022-07-23T13:18:55;29.70;95.00
9049;DHT22;4559;47.252;9.592;2022-07-23T13:21:22;29.60;94.50
9049;DHT22;4559;47.252;9.592;2022-07-23T13:23:48;29.50;94.70
9049;DHT22;4559;47.252;9.592;2022-07-23T13:26:14;29.50;94.20
9049;DHT22;4559;47.252;9.592;2022-07-23T13:28:40;29.50;94.30
9049;DHT22;4559;47.252;9.592;2022-07-23T13:31:05;29.40;94.90
9049;DHT22;4559;47.252;9.592;2022-07-23T13:33:31;29.30;95.50
9049;DHT22;4559;47.252;9.592;2022-07-23T13:35:57;29.40;96.30
9049;DHT22;4559;47.252;9.592;2022-07-23T13:38:22;29.50;96.10
9049;DHT22;4559;47.252;9.592;2022-07-23T13:40:50;29.60;95.80
9049;DHT22;4559;47.252;9.592;2022-07-23T13:43:18;29.70;95.60
9049;DHT22;4559;47.252;9.592;2022-07-23T13:45:45;29.70;95.10
9049;DHT22;4559;47.252;9.592;2022-07-23T13:48:13;29.70;95.00
9049;DHT22;4559;47.252;9.592;2022-07-23T13:50:40;29.70;95.10
9049;DHT22;4559;47.252;9.592;2022-07-23T13:53:08;29.60;95.20
9049;DHT22;4559;47.252;9.592;2022-07-23T13:55:35;29.60;95.60
9049;DHT22;4559;47.252;9.592;2022-07-23T13:58:01;29.60;95.60
9049;DHT22;4559;47.252;9.592;2022-07-23T14:00:28;29.70;95.70
9049;DHT22;4559;47.252;9.592;2022-07-23T14:02:56;29.70;96.30
9049;DHT22;4559;47.252;9.592;2022-07-23T14:05:22;29.70;95.20
9049;DHT22;4559;47.252;9.592;2022-07-23T14:07:48;29.50;95.30
9049;DHT22;4559;47.252;9.592;2022-07-23T14:10:16;29.40;95.70
9049;DHT22;4559;47.252;9.592;2022-07-23T14:12:43;29.30;95.80
9049;DHT22;4559;47.252;9.592;2022-07-23T14:15:08;29.20;96.10
9049;DHT22;4559;47.252;9.592;2022-07-23T14:17:37;29.20;96.20
9049;DHT22;4559;47.252;9.592;2022-07-23T14:20:05;29.10;96.40
9049;DHT22;4559;47.252;9.592;2022-07-23T14:22:31;29.10;96.00
9049;DHT22;4559;47.252;9.592;2022-07-23T14:24:57;29.00;96.10
9049;DHT22;4559;47.252;9.592;2022-07-23T14:27:24;28.80;96.50
9049;DHT22;4559;47.252;9.592;2022-07-23T14:29:51;28.80;96.80
9049;DHT22;4559;47.252;9.592;2022-07-23T14:32:16;28.80;97.00
9049;DHT22;4559;47.252;9.592;2022-07-23T14:34:42;28.80;96.60
9049;DHT22;4559;47.252;9.592;2022-07-23T14:37:09;28.70;96.60
9049;DHT22;4559;47.252;9.592;2022-07-23T14:39:35;28.60;96.90
9049;DHT22;4559;47.252;9.592;2022-07-23T14:42:01;28.60;96.50
9049;DHT22;4559;47.252;9.592;2022-07-23T14:44:27;28.60;96.60
9049;DHT22;4559;47.252;9.592;2022-07-23T14:46:53;28.60;97.00
9049;DHT22;4559;47.252;9.592;2022-07-23T14:49:18;28.50;97.10
9049;DHT22;4559;47.252;9.592;2022-07-23T14:51:44;28.40;97.00
9049;DHT22;4559;47.252;9.592;2022-07-23T14:54:10;28.40;97.40
9049;DHT22;4559;47.252;9.592;2022-07-23T14:56:36;28.40;97.00
9049;DHT22;4559;47.252;9.592;2022-07-23T14:59:06;28.30;97.10
9049;DHT22;4559;47.252;9.592;2022-07-23T15:01:32;28.20;97.20
9049;DHT22;4559;47.252;9.592;2022-07-23T15:03:57;28.20;97.60
9049;DHT22;4559;47.252;9.592;2022-07-23T15:06:23;28.20;97.30
9049;DHT22;4559;47.252;9.592;2022-07-23T15:08:50;28.10;97.60
9049;DHT22;4559;47.252;9.592;2022-07-23T15:11:15;28.00;97.60
9049;DHT22;4559;47.252;9.592;2022-07-23T15:13:41;28.00;97.80
9049;DHT22;4559;47.252;9.592;2022-07-23T15:16:07;27.90;97.90
9049;DHT22;4559;47.252;9.592;2022-07-23T15:18:34;27.80;97.80
9049;DHT22;4559;47.252;9.592;2022-07-23T15:21:00;27.70;97.90
9049;DHT22;4559;47.252;9.592;2022-07-23T15:23:26;27.70;98.10
9049;DHT22;4559;47.252;9.592;2022-07-23T15:25:54;27.60;97.50
9049;DHT22;4559;47.252;9.592;2022-07-23T15:28:20;27.50;97.90
9049;DHT22;4559;47.252;9.592;2022-07-23T15:30:45;27.50;97.80
9049;DHT22;4559;47.252;9.592;2022-07-23T15:33:11;27.40;98.00
9049;DHT22;4559;47.252;9.592;2022-07-23T15:35:37;27.40;97.90
9049;DHT22;4559;47.252;9.592;2022-07-23T15:38:02;27.50;98.10
9049;DHT22;4559;47.252;9.592;2022-07-23T15:40:28;27.70;97.30
9049;DHT22;4559;47.252;9.592;2022-07-23T15:42:53;27.80;97.30
9049;DHT22;4559;47.252;9.592;2022-07-23T15:45:19;27.90;97.50
9049;DHT22;4559;47.252;9.592;2022-07-23T15:47:49;27.90;97.50
9049;DHT22;4559;47.252;9.592;2022-07-23T15:50:15;28.00;97.00
9049;DHT22;4559;47.252;9.592;2022-07-23T15:52:40;28.10;96.70
9049;DHT22;4559;47.252;9.592;2022-07-23T15:55:07;28.20;96.70
9049;DHT22;4559;47.252;9.592;2022-07-23T15:57:33;28.30;96.50
9049;DHT22;4559;47.252;9.592;2022-07-23T15:59:58;28.30;96.10
9049;DHT22;4559;47.252;9.592;2022-07-23T16:02:24;28.30;96.30
9049;DHT22;4559;47.252;9.592;2022-07-23T16:04:50;28.30;96.50
9049;DHT22;4559;47.252;9.592;2022-07-23T16:07:18;28.30;97.10
9049;DHT22;4559;47.252;9.592;2022-07-23T16:09:44;28.30;96.80
9049;DHT22;4559;47.252;9.592;2022-07-23T16:12:10;28.30;96.30
9049;DHT22;4559;47.252;9.592;2022-07-23T16:14:36;28.30;96.00
9049;DHT22;4559;47.252;9.592;2022-07-23T16:17:01;28.30;95.90
9049;DHT22;4559;47.252;9.592;2022-07-23T16:19:27;28.20;95.70
9049;DHT22;4559;47.252;9.592;2022-07-23T16:21:53;28.20;96.60
9049;DHT22;4559;47.252;9.592;2022-07-23T16:24:19;28.10;96.70
9049;DHT22;4559;47.252;9.592;2022-07-23T16:26:45;28.10;96.90
9049;DHT22;4559;47.252;9.592;2022-07-23T16:29:14;28.20;96.90
9049;DHT22;4559;47.252;9.592;2022-07-23T16:31:39;28.20;96.80
9049;DHT22;4559;47.252;9.592;2022-07-23T16:34:05;28.20;97.00
9049;DHT22;4559;47.252;9.592;2022-07-23T16:36:30;28.20;96.80
9049;DHT22;4559;47.252;9.592;2022-07-23T16:38:58;28.20;97.10
9049;DHT22;4559;47.252;9.592;2022-07-23T16:41:24;28.20;97.40
9049;DHT22;4559;47.252;9.592;2022-07-23T16:43:49;28.10;97.00
9049;DHT22;4559;47.252;9.592;2022-07-23T16:46:15;28.10;97.20
9049;DHT22;4559;47.252;9.592;2022-07-23T16:48:41;28.00;97.20